createdAt,value
2018-02-14T00:02:24.837Z,54.24
2018-02-14T00:04:54.645Z,54.39
2018-02-14T00:07:24.448Z,54.43
2018-02-14T00:09:54.313Z,54.19
2018-02-14T00:12:24.215Z,54.21
2018-02-14T00:14:54.625Z,54.68
2018-02-14T00:17:24.782Z,54.72
2018-02-14T00:19:54.515Z,54.96
2018-02-14T00:22:25.190Z,54.44
2018-02-14T00:24:54.955Z,54.55
2018-02-14T00:27:25.512Z,54.70
2018-02-14T00:29:55.368Z,54.72
2018-02-14T00:32:25.212Z,54.77
2018-02-14T00:34:55.760Z,54.75
2018-02-14T00:37:25.451Z,54.85
2018-02-14T00:39:56.050Z,55.01
2018-02-14T00:42:25.848Z,54.97
2018-02-14T00:44:55.723Z,54.88
2018-02-14T00:47:25.540Z,54.89
2018-02-14T00:49:55.466Z,54.97
2018-02-14T00:52:25.294Z,54.73
2018-02-14T00:54:55.100Z,54.83
2018-02-14T00:57:25.017Z,54.94
2018-02-14T00:59:54.764Z,54.92
2018-02-14T01:02:25.483Z,55.03
2018-02-14T01:04:55.225Z,54.90
2018-02-14T01:07:25.894Z,54.82
2018-02-14T01:09:55.595Z,55.33
2018-02-14T01:12:25.647Z,55.18
2018-02-14T01:14:55.416Z,54.88
2018-02-14T01:17:25.214Z,55.21
2018-02-14T01:19:59.839Z,55.38
2018-02-14T01:22:30.436Z,55.37
2018-02-14T01:25:00.462Z,55.24
2018-02-14T01:27:30.171Z,55.10
2018-02-14T01:30:00.690Z,55.50
2018-02-14T01:32:30.451Z,55.72
2018-02-14T01:35:00.159Z,55.82
2018-02-14T01:37:30.756Z,55.58
2018-02-14T01:40:00.493Z,55.76
2018-02-14T01:42:31.040Z,55.95
2018-02-14T01:45:01.045Z,56.08
2018-02-14T01:47:31.764Z,55.82
2018-02-14T01:50:02.271Z,55.86
2018-02-14T01:52:32.996Z,55.60
2018-02-14T01:55:02.739Z,55.90
2018-02-14T01:57:33.240Z,56.07
2018-02-14T02:00:03.056Z,56.05
2018-02-14T02:02:32.776Z,55.62
2018-02-14T02:05:02.763Z,55.60
2018-02-14T02:07:32.598Z,55.79
2018-02-14T02:10:02.338Z,55.84
2018-02-14T02:12:32.816Z,56.05
2018-02-14T02:15:02.612Z,55.67
2018-02-14T02:17:32.479Z,56.06
2018-02-14T02:20:03.072Z,56.33
2018-02-14T02:22:32.950Z,56.37
2018-02-14T02:25:02.951Z,56.40
2018-02-14T02:27:33.629Z,56.32
2018-02-14T02:30:03.331Z,56.41
2018-02-14T02:32:33.144Z,56.26
2018-02-14T02:35:03.016Z,56.23
2018-02-14T02:37:33.520Z,56.31
2018-02-14T02:40:47.175Z,55.92
2018-02-14T02:43:16.974Z,56.49
2018-02-14T02:45:46.860Z,56.40
2018-02-14T02:48:16.813Z,56.51
2018-02-14T02:50:46.577Z,56.35
2018-02-14T02:53:16.577Z,56.55
2018-02-14T02:55:46.439Z,56.29
2018-02-14T02:58:16.205Z,56.40
2018-02-14T03:00:45.896Z,56.36
2018-02-14T03:03:16.418Z,56.61
2018-02-14T03:05:46.996Z,56.61
2018-02-14T03:08:16.816Z,56.48
2018-02-14T03:10:46.624Z,56.55
2018-02-14T03:13:16.606Z,56.04
2018-02-14T03:15:47.159Z,56.20
2018-02-14T03:18:16.895Z,56.31
2018-02-14T03:20:46.781Z,56.56
2018-02-14T03:23:16.482Z,56.40
2018-02-14T03:25:46.812Z,56.46
2018-02-14T03:28:16.679Z,56.54
2018-02-14T03:30:46.444Z,56.72
2018-02-14T03:33:16.386Z,56.47
2018-02-14T03:35:46.495Z,56.53
2018-02-14T03:38:16.411Z,56.58
2018-02-14T03:40:46.256Z,56.81
2018-02-14T03:43:16.243Z,56.93
2018-02-14T03:45:46.410Z,56.66
2018-02-14T03:48:17.236Z,56.93
2018-02-14T03:50:46.996Z,56.81
2018-02-14T03:53:16.923Z,56.88
2018-02-14T03:55:46.885Z,56.52
2018-02-14T03:58:16.701Z,56.71
2018-02-14T04:00:46.501Z,56.79
2018-02-14T04:03:17.067Z,56.70
2018-02-14T04:05:47.011Z,56.86
2018-02-14T04:08:16.845Z,57.07
2018-02-14T04:10:46.752Z,57.15
2018-02-14T04:13:16.472Z,57.31
2018-02-14T04:15:46.177Z,57.25
2018-02-14T04:18:16.083Z,57.31
2018-02-14T04:20:45.880Z,57.67
2018-02-14T04:23:15.963Z,58.02
2018-02-14T04:25:46.625Z,57.92
2018-02-14T04:28:16.376Z,57.96
2018-02-14T04:30:46.160Z,57.89
2018-02-14T04:33:16.060Z,58.07
2018-02-14T04:35:45.920Z,58.08
2018-02-14T04:38:15.603Z,58.17
2018-02-14T04:40:45.497Z,58.23
2018-02-14T04:43:15.498Z,58.35
2018-02-14T04:45:45.193Z,58.29
2018-02-14T04:48:15.652Z,58.03
2018-02-14T04:50:45.346Z,57.98
2018-02-14T04:53:15.950Z,57.94
2018-02-14T04:55:47.227Z,58.34
2018-02-14T04:58:17.160Z,58.01
2018-02-14T05:00:47.114Z,57.86
2018-02-14T05:03:16.871Z,57.85
2018-02-14T05:05:46.557Z,57.83
2018-02-14T05:08:17.227Z,57.68
2018-02-14T05:10:46.868Z,57.53
2018-02-14T05:13:16.987Z,57.57
2018-02-14T05:15:46.855Z,57.56
2018-02-14T05:18:16.568Z,57.55
2018-02-14T05:20:46.268Z,57.46
2018-02-14T05:23:16.976Z,57.49
2018-02-14T05:25:46.766Z,57.59
2018-02-14T05:28:16.906Z,57.42
2018-02-14T05:30:47.529Z,57.12
2018-02-14T05:33:17.458Z,57.02
2018-02-14T05:35:48.252Z,57.02
2018-02-14T05:38:18.129Z,56.48
2018-02-14T05:40:48.595Z,56.69
2018-02-14T05:43:18.297Z,56.37
2018-02-14T05:45:48.231Z,56.68
2018-02-14T05:48:17.938Z,56.73
2018-02-14T05:50:47.890Z,56.53
2018-02-14T05:55:50.356Z,56.75
2018-02-14T05:58:20.387Z,56.67
2018-02-14T06:00:50.119Z,56.92
2018-02-14T06:03:35.438Z,56.63
2018-02-14T06:06:05.121Z,57.02
2018-02-14T06:08:35.806Z,57.16
2018-02-14T06:11:05.656Z,57.29
2018-02-14T06:13:36.164Z,57.17
2018-02-14T06:16:06.265Z,56.94
2018-02-14T06:18:36.403Z,57.12
2018-02-14T06:21:06.371Z,57.59
2018-02-14T06:23:36.332Z,57.56
2018-02-14T06:26:44.611Z,57.67
2018-02-14T06:29:14.483Z,57.69
2018-02-14T06:31:44.363Z,57.69
2018-02-14T06:34:14.038Z,57.52
2018-02-14T06:36:44.828Z,57.78
2018-02-14T06:39:14.710Z,57.89
2018-02-14T06:41:44.736Z,57.83
2018-02-14T06:44:14.694Z,57.52
2018-02-14T06:46:44.829Z,57.80
2018-02-14T06:49:23.794Z,57.88
2018-02-14T06:51:53.634Z,57.92
2018-02-14T06:54:24.253Z,58.00
2018-02-14T06:56:54.209Z,57.95
2018-02-14T06:59:24.070Z,57.88
2018-02-14T07:01:53.752Z,58.06
2018-02-14T07:04:24.415Z,57.88
2018-02-14T07:06:54.229Z,59.29
2018-02-14T07:09:24.034Z,57.84
2018-02-14T07:11:54.085Z,57.32
2018-02-14T07:14:23.896Z,57.66
2018-02-14T07:16:53.778Z,57.14
2018-02-14T07:19:23.779Z,57.61
2018-02-14T07:21:54.331Z,57.26
2018-02-14T07:24:25.020Z,56.96
2018-02-14T07:26:55.073Z,57.04
2018-02-14T07:29:24.976Z,57.00
2018-02-14T07:31:54.913Z,56.99
2018-02-14T07:34:25.286Z,56.93
2018-02-14T07:36:55.151Z,57.31
2018-02-14T07:39:25.132Z,56.84
2018-02-14T07:41:56.405Z,56.70
2018-02-14T07:44:27.164Z,56.53
2018-02-14T07:46:56.944Z,56.29
2018-02-14T07:49:26.799Z,56.07
2018-02-14T07:51:56.843Z,55.76
2018-02-14T07:54:27.064Z,55.72
2018-02-14T07:56:57.024Z,55.03
2018-02-14T07:59:27.404Z,54.50
2018-02-14T08:01:57.151Z,57.50
2018-02-14T08:04:27.289Z,54.02
2018-02-14T08:06:57.318Z,53.85
2018-02-14T08:09:27.812Z,53.76
2018-02-14T08:11:59.082Z,54.02
2018-02-14T08:14:30.589Z,53.69
2018-02-14T08:17:00.381Z,53.15
2018-02-14T08:19:30.531Z,52.94
2018-02-14T08:22:01.149Z,52.51
2018-02-14T08:24:31.284Z,51.86
2018-02-14T08:27:01.951Z,50.76
2018-02-14T08:29:31.848Z,49.87
2018-02-14T08:32:01.728Z,50.25
2018-02-14T08:34:32.255Z,49.63
2018-02-14T08:37:02.660Z,50.05
2018-02-14T08:39:32.485Z,49.84
2018-02-14T08:42:02.470Z,50.47
2018-02-14T08:44:32.748Z,50.71
2018-02-14T08:47:03.392Z,50.65
2018-02-14T08:49:34.312Z,50.21
2018-02-14T08:52:04.155Z,50.47
2018-02-14T08:54:34.229Z,50.23
2018-02-14T08:57:04.566Z,49.74
2018-02-14T08:59:34.415Z,49.91
2018-02-14T09:02:04.288Z,49.85
2018-02-14T09:04:34.208Z,49.70
2018-02-14T09:07:04.044Z,49.80
2018-02-14T09:09:34.704Z,49.51
2018-02-14T09:12:04.982Z,50.04
2018-02-14T09:14:35.511Z,49.61
2018-02-14T09:17:06.044Z,49.15
2018-02-14T09:19:36.803Z,49.43
2018-02-14T09:22:06.836Z,49.00
2018-02-14T09:24:36.555Z,48.83
2018-02-14T09:27:06.332Z,48.75
2018-02-14T09:29:37.104Z,48.39
2018-02-14T09:32:06.990Z,48.46
2018-02-14T09:34:36.906Z,48.66
2018-02-14T09:37:07.016Z,48.37
2018-02-14T09:39:37.778Z,48.23
2018-02-14T09:42:07.482Z,48.15
2018-02-14T09:44:37.835Z,47.99
2018-02-14T09:47:07.947Z,48.03
2018-02-14T09:49:37.938Z,48.04
2018-02-14T09:52:07.972Z,47.73
2018-02-14T09:54:37.785Z,47.19
2018-02-14T09:57:08.795Z,46.92
2018-02-14T09:59:38.805Z,46.63
2018-02-14T10:02:09.564Z,47.06
2018-02-14T10:04:39.565Z,46.51
2018-02-14T10:07:10.130Z,46.37
2018-02-14T10:09:40.029Z,46.24
2018-02-14T10:12:09.820Z,46.32
2018-02-14T10:14:40.708Z,46.24
2018-02-14T10:17:10.737Z,46.17
2018-02-14T10:19:40.550Z,46.18
2018-02-14T10:22:10.519Z,45.50
2018-02-14T10:24:40.321Z,45.76
2018-02-14T10:27:10.032Z,45.49
2018-02-14T10:29:39.951Z,45.52
2018-02-14T10:32:10.024Z,45.27
2018-02-14T10:34:39.904Z,45.21
2018-02-14T10:37:09.979Z,44.86
2018-02-14T10:39:39.797Z,44.39
2018-02-14T10:42:10.391Z,44.26
2018-02-14T10:44:40.375Z,44.42
2018-02-14T10:47:10.208Z,44.16
2018-02-14T10:49:40.014Z,44.55
2018-02-14T10:52:09.972Z,43.73
2018-02-14T10:54:41.457Z,43.53
2018-02-14T10:57:11.296Z,43.04
2018-02-14T10:59:41.121Z,42.91
2018-02-14T11:02:11.140Z,42.97
2018-02-14T11:04:44.999Z,43.07
2018-02-14T11:07:19.068Z,43.25
2018-02-14T11:09:48.785Z,43.15
2018-02-14T11:12:18.599Z,42.78
2018-02-14T11:14:49.191Z,42.52
2018-02-14T11:17:19.031Z,42.36
2018-02-14T11:19:48.832Z,41.22
2018-02-14T11:22:18.693Z,41.23
2018-02-14T11:24:49.532Z,41.15
2018-02-14T11:27:20.011Z,41.50
2018-02-14T11:29:49.825Z,41.49
2018-02-14T11:32:19.588Z,41.65
2018-02-14T11:34:50.044Z,41.26
2018-02-14T11:37:19.750Z,40.77
2018-02-14T11:39:49.708Z,40.07
2018-02-14T11:42:19.598Z,40.28
2018-02-14T11:44:50.432Z,39.97
2018-02-14T11:47:20.484Z,40.23
2018-02-14T11:49:50.316Z,39.83
2018-02-14T11:52:20.966Z,39.30
2018-02-14T11:54:51.531Z,39.09
2018-02-14T11:57:21.652Z,38.88
2018-02-14T11:59:51.569Z,38.59
2018-02-14T12:02:21.540Z,38.50
2018-02-14T12:04:52.270Z,38.95
2018-02-14T12:07:22.874Z,38.86
2018-02-14T12:09:52.671Z,38.34
2018-02-14T12:12:22.499Z,37.35
2018-02-14T12:14:52.490Z,36.64
2018-02-14T12:17:22.379Z,36.67
2018-02-14T12:19:53.031Z,36.40
2018-02-14T12:22:22.760Z,36.48
2018-02-14T12:24:52.642Z,35.84
2018-02-14T12:27:22.918Z,36.03
2018-02-14T12:29:54.343Z,36.48
2018-02-14T12:32:24.094Z,36.31
2018-02-14T12:34:54.705Z,36.40
2018-02-14T12:37:24.619Z,35.51
2018-02-14T12:39:54.866Z,35.57
2018-02-14T12:42:24.908Z,35.32
2018-02-14T12:44:55.061Z,35.27
2018-02-14T12:47:24.823Z,34.26
2018-02-14T12:49:54.711Z,34.26
2018-02-14T12:52:24.677Z,34.87
2018-02-14T12:54:55.679Z,35.04
2018-02-14T12:57:25.628Z,35.84
2018-02-14T12:59:55.914Z,35.13
2018-02-14T13:02:27.271Z,34.89
2018-02-14T13:04:57.010Z,34.68
2018-02-14T13:07:26.879Z,34.45
2018-02-14T13:09:56.711Z,34.22
2018-02-14T13:12:26.759Z,34.11
2018-02-14T13:14:56.611Z,33.83
2018-02-14T13:17:26.808Z,34.00
2018-02-14T13:19:56.980Z,34.15
2018-02-14T13:22:26.959Z,33.42
2018-02-14T13:24:56.960Z,33.61
2018-02-14T13:27:26.830Z,33.67
2018-02-14T13:29:56.891Z,33.05
2018-02-14T13:32:26.605Z,32.49
2018-02-14T13:34:56.795Z,32.45
2018-02-14T13:37:27.604Z,32.07
2018-02-14T13:39:58.827Z,31.51
2018-02-14T13:42:28.730Z,31.50
2018-02-14T13:44:58.445Z,31.67
2018-02-14T13:47:28.188Z,31.34
2018-02-14T13:49:58.100Z,30.86
2018-02-14T13:52:28.746Z,31.33
2018-02-14T13:55:00.379Z,30.35
2018-02-14T13:57:30.114Z,29.89
2018-02-14T14:00:00.803Z,30.02
2018-02-14T14:02:31.047Z,29.84
2018-02-14T14:05:00.839Z,31.37
2018-02-14T14:07:30.617Z,29.58
2018-02-14T14:10:01.096Z,29.31
2018-02-14T14:12:31.011Z,28.80
2018-02-14T14:15:00.803Z,28.95
2018-02-14T14:17:31.874Z,28.69
2018-02-14T14:20:05.669Z,28.67
2018-02-14T14:22:38.152Z,28.94
2018-02-14T14:25:09.501Z,29.12
2018-02-14T14:27:40.066Z,28.97
2018-02-14T14:30:11.170Z,29.05
2018-02-14T14:32:43.700Z,29.19
2018-02-14T14:35:13.744Z,29.59
2018-02-14T14:37:43.624Z,29.54
2018-02-14T14:40:14.314Z,29.98
2018-02-14T14:42:44.562Z,29.76
2018-02-14T14:45:14.701Z,29.35
2018-02-14T14:47:44.544Z,29.84
2018-02-14T14:50:14.550Z,30.71
2018-02-14T14:52:44.363Z,31.39
2018-02-14T14:55:21.115Z,31.81
2018-02-14T14:57:51.776Z,32.40
2018-02-14T15:00:22.153Z,32.70
2018-02-14T15:02:52.367Z,32.81
2018-02-14T15:05:22.181Z,32.84
2018-02-14T15:07:51.989Z,33.03
2018-02-14T15:10:21.868Z,32.83
2018-02-14T15:12:51.928Z,33.04
2018-02-14T15:15:22.152Z,33.28
2018-02-14T15:17:52.001Z,33.49
2018-02-14T15:20:22.073Z,33.71
2018-02-14T15:22:52.515Z,33.61
2018-02-14T15:25:22.257Z,34.05
2018-02-14T15:27:52.884Z,34.10
2018-02-14T15:30:23.392Z,34.24
2018-02-14T15:32:53.421Z,34.40
2018-02-14T15:35:24.112Z,35.25
2018-02-14T15:37:54.021Z,36.67
2018-02-14T15:40:23.803Z,34.56
2018-02-14T15:42:53.656Z,34.92
2018-02-14T15:45:23.978Z,35.06
2018-02-14T15:47:53.808Z,34.28
2018-02-14T15:50:23.524Z,34.42
2018-02-14T15:52:53.293Z,34.80
2018-02-14T15:55:23.549Z,34.97
2018-02-14T15:57:53.380Z,34.95
2018-02-14T16:00:23.591Z,34.54
2018-02-14T16:02:53.415Z,34.40
2018-02-14T16:05:24.001Z,34.20
2018-02-14T16:07:54.109Z,34.61
2018-02-14T16:10:23.896Z,34.21
2018-02-14T16:12:53.617Z,34.30
2018-02-14T16:15:24.358Z,34.37
2018-02-14T16:17:54.388Z,34.46
2018-02-14T16:20:24.156Z,34.44
2018-02-14T16:22:53.988Z,34.61
2018-02-14T16:25:24.813Z,35.10
2018-02-14T16:27:55.349Z,34.90
2018-02-14T16:30:25.946Z,35.15
2018-02-14T16:32:56.369Z,35.56
2018-02-14T16:35:26.119Z,35.30
2018-02-14T16:37:56.881Z,35.76
2018-02-14T16:40:26.881Z,35.72
2018-02-14T16:42:56.717Z,35.41
2018-02-14T16:45:26.601Z,35.36
2018-02-14T16:47:57.105Z,35.62
2018-02-14T16:50:26.951Z,35.78
2018-02-14T16:52:56.735Z,35.96
2018-02-14T16:55:27.304Z,36.07
2018-02-14T16:57:57.114Z,36.42
2018-02-14T17:00:26.902Z,36.13
2018-02-14T17:02:57.570Z,36.41
2018-02-14T17:05:28.268Z,36.52
2018-02-14T17:07:58.817Z,36.58
2018-02-14T17:10:28.561Z,36.78
2018-02-14T17:12:58.924Z,36.69
2018-02-14T17:15:28.994Z,37.22
2018-02-14T17:17:58.790Z,37.43
2018-02-14T17:20:28.611Z,36.92
2018-02-14T17:22:58.750Z,36.74
2018-02-14T17:25:28.640Z,37.00
2018-02-14T17:27:58.461Z,37.03
2018-02-14T17:30:28.531Z,36.87
2018-02-14T17:32:58.344Z,36.46
2018-02-14T17:35:28.279Z,37.02
2018-02-14T17:37:58.808Z,37.18
2018-02-14T17:40:29.363Z,37.23
2018-02-14T17:42:59.803Z,37.57
2018-02-14T17:45:29.776Z,37.60
2018-02-14T17:47:59.595Z,37.41
2018-02-14T17:50:31.116Z,37.62
2018-02-14T17:53:01.223Z,37.69
2018-02-14T17:55:31.843Z,37.86
2018-02-14T17:58:01.922Z,38.23
2018-02-14T18:00:32.880Z,38.42
2018-02-14T18:03:02.797Z,38.57
2018-02-14T18:05:32.796Z,39.24
2018-02-14T18:08:02.762Z,39.73
2018-02-14T18:10:32.769Z,40.62
2018-02-14T18:13:02.664Z,41.13
2018-02-14T18:15:33.402Z,41.51
2018-02-14T18:18:03.395Z,42.13
2018-02-14T18:20:33.298Z,42.28
2018-02-14T18:23:04.999Z,42.56
2018-02-14T18:25:35.562Z,42.66
2018-02-14T18:28:05.944Z,42.75
2018-02-14T18:30:35.852Z,42.75
2018-02-14T18:33:05.997Z,42.57
2018-02-14T18:35:36.537Z,42.54
2018-02-14T18:38:06.643Z,42.53
2018-02-14T18:40:36.464Z,42.36
2018-02-14T18:43:06.590Z,42.59
2018-02-14T18:45:36.438Z,42.56
2018-02-14T18:48:07.539Z,44.16
2018-02-14T18:50:37.597Z,42.30
2018-02-14T18:53:08.335Z,42.42
2018-02-14T18:55:38.285Z,42.33
2018-02-14T18:58:08.211Z,42.46
2018-02-14T19:00:38.010Z,42.50
2018-02-14T19:03:08.104Z,42.57
2018-02-14T19:05:38.545Z,42.71
2018-02-14T19:08:09.054Z,42.80
2018-02-14T19:10:39.750Z,42.83
2018-02-14T19:13:10.402Z,42.95
2018-02-14T19:15:40.310Z,42.91
2018-02-14T19:18:10.245Z,43.37
2018-02-14T19:20:40.100Z,43.26
2018-02-14T19:23:10.135Z,43.57
2018-02-14T19:25:39.930Z,43.56
2018-02-14T19:28:10.115Z,43.66
2018-02-14T19:30:39.947Z,43.56
2018-02-14T19:33:09.888Z,43.77
2018-02-14T19:35:39.757Z,43.79
2018-02-14T19:38:11.703Z,43.70
2018-02-14T19:40:42.544Z,43.41
2018-02-14T19:43:12.673Z,43.58
2018-02-14T19:45:44.483Z,43.62
2018-02-14T19:48:14.692Z,44.05
2018-02-14T19:50:44.864Z,43.46
2018-02-14T19:53:15.462Z,43.52
2018-02-14T19:55:45.603Z,43.35
2018-02-14T19:58:16.308Z,43.53
2018-02-14T20:00:47.285Z,43.69
2018-02-14T20:03:18.032Z,43.82
2018-02-14T20:05:49.196Z,43.92
2018-02-14T20:08:20.326Z,44.24
2018-02-14T20:10:50.403Z,44.46
2018-02-14T20:13:20.741Z,44.32
2018-02-14T20:15:50.681Z,44.65
2018-02-14T20:18:27.793Z,44.73
2018-02-14T20:20:59.616Z,44.67
2018-02-14T20:23:30.194Z,44.84
2018-02-14T20:26:00.092Z,44.84
2018-02-14T20:28:30.933Z,44.68
2018-02-14T20:31:00.668Z,44.64
2018-02-14T20:33:30.779Z,45.07
2018-02-14T20:36:02.391Z,45.27
2018-02-14T20:38:32.944Z,44.98
2018-02-14T20:41:04.673Z,44.98
2018-02-14T20:43:34.678Z,44.99
2018-02-14T20:46:04.522Z,45.22
2018-02-14T20:48:35.532Z,44.68
2018-02-14T20:51:05.622Z,44.74
2018-02-14T20:53:35.521Z,45.06
2018-02-14T20:56:05.505Z,45.15
2018-02-14T20:58:36.194Z,45.27
2018-02-14T21:01:06.083Z,45.25
2018-02-14T21:03:35.818Z,45.19
2018-02-14T21:06:05.592Z,45.24
2018-02-14T21:08:36.228Z,45.03
2018-02-14T21:11:06.925Z,45.14
2018-02-14T21:13:36.819Z,44.91
2018-02-14T21:16:06.798Z,45.08
2018-02-14T21:18:37.500Z,45.26
2018-02-14T21:21:08.384Z,45.40
2018-02-14T21:23:38.161Z,45.53
2018-02-14T21:26:08.851Z,45.49
2018-02-14T21:28:38.661Z,45.62
2018-02-14T21:31:08.495Z,45.86
2018-02-14T21:33:38.273Z,45.69
2018-02-14T21:36:08.100Z,45.72
2018-02-14T21:38:37.939Z,45.86
2018-02-14T21:41:07.833Z,45.71
2018-02-14T21:43:37.804Z,45.95
2018-02-14T21:46:08.638Z,45.97
2018-02-14T21:48:39.177Z,46.06
2018-02-14T21:51:08.967Z,46.00
2018-02-14T21:53:39.573Z,45.98
2018-02-14T21:56:09.511Z,46.17
2018-02-14T21:58:40.081Z,46.17
2018-02-14T22:01:10.018Z,46.06
2018-02-14T22:03:39.763Z,46.24
2018-02-14T22:06:09.664Z,46.35
2018-02-14T22:08:39.415Z,46.54
2018-02-14T22:11:09.576Z,46.57
2018-02-14T22:13:39.421Z,46.51
2018-02-14T22:16:09.339Z,46.48
2018-02-14T22:18:39.232Z,46.79
2018-02-14T22:21:09.033Z,46.46
2018-02-14T22:23:39.226Z,46.51
2018-02-14T22:26:09.056Z,46.50
2018-02-14T22:28:39.047Z,46.53
2018-02-14T22:31:08.980Z,46.66
2018-02-14T22:33:38.651Z,46.71
2018-02-14T22:36:09.392Z,46.91
2018-02-14T22:38:40.117Z,47.18
2018-02-14T22:41:10.833Z,47.12
2018-02-14T22:43:40.600Z,46.97
2018-02-14T22:46:10.628Z,46.99
2018-02-14T22:48:40.647Z,46.92
2018-02-14T22:51:10.731Z,46.97
2018-02-14T22:53:41.235Z,47.04
2018-02-14T22:56:11.856Z,47.48
2018-02-14T22:58:41.640Z,47.22
2018-02-14T23:01:11.596Z,47.13
2018-02-14T23:03:42.207Z,47.53
2018-02-14T23:06:12.257Z,47.48
2018-02-14T23:08:42.835Z,47.46
2018-02-14T23:11:12.658Z,47.46
2018-02-14T23:13:42.560Z,47.39
2018-02-14T23:16:12.412Z,47.48
2018-02-14T23:18:42.317Z,47.84
2018-02-14T23:21:12.142Z,47.88
2018-02-14T23:23:42.483Z,47.50
2018-02-14T23:26:13.000Z,47.55
2018-02-14T23:28:43.641Z,47.46
2018-02-14T23:31:14.205Z,47.59
2018-02-14T23:33:44.026Z,47.67
2018-02-14T23:36:13.940Z,47.68
2018-02-14T23:38:43.697Z,47.55
2018-02-14T23:41:14.283Z,47.72
2018-02-14T23:43:44.164Z,47.83
2018-02-14T23:46:14.828Z,47.85
2018-02-14T23:48:44.652Z,47.62
2018-02-14T23:51:14.385Z,47.73
2018-02-14T23:53:44.321Z,47.53
2018-02-14T23:56:14.055Z,47.58
2018-02-14T23:58:44.069Z,47.81
